sensor_id;sensor_type;location;lat;lon;timestamp;pressure;altitude;pressure_sealevel;temperature;humidity
65880;BME280;52661;51.364;6.054;2023-07-29T00:01:56;100393.53;;;19.46;100.00
65880;BME280;52661;51.364;6.054;2023-07-29T00:04:21;100388.44;;;19.36;100.00
65880;BME280;52661;51.364;6.054;2023-07-29T00:06:47;100396.69;;;19.36;100.00
65880;BME280;52661;51.364;6.054;2023-07-29T00:09:12;100386.16;;;19.34;100.00
65880;BME280;52661;51.364;6.054;2023-07-29T00:11:37;100385.06;;;19.32;100.00
65880;BME280;52661;51.364;6.054;2023-07-29T00:14:03;100387.66;;;19.26;100.00
65880;BME280;52661;51.364;6.054;2023-07-29T00:16:28;100385.50;;;19.21;100.00
65880;BME280;52661;51.364;6.054;2023-07-29T00:18:54;100387.50;;;19.21;100.00
65880;BME280;52661;51.364;6.054;2023-07-29T00:21:19;100377.25;;;19.21;100.00
65880;BME280;52661;51.364;6.054;2023-07-29T00:23:45;100383.53;;;19.22;100.00
65880;BME280;52661;51.364;6.054;2023-07-29T00:26:10;100375.13;;;19.16;100.00
65880;BME280;52661;51.364;6.054;2023-07-29T00:28:35;100387.81;;;19.13;100.00
65880;BME280;52661;51.364;6.054;2023-07-29T00:31:02;100381.69;;;19.09;100.00
65880;BME280;52661;51.364;6.054;2023-07-29T00:33:27;100380.28;;;19.14;100.00
65880;BME280;52661;51.364;6.054;2023-07-29T00:35:53;100375.56;;;19.14;100.00
65880;BME280;52661;51.364;6.054;2023-07-29T00:38:18;100369.75;;;19.12;100.00
65880;BME280;52661;51.364;6.054;2023-07-29T00:40:43;100378.00;;;19.12;100.00
65880;BME280;52661;51.364;6.054;2023-07-29T00:43:09;100372.03;;;19.14;100.00
65880;BME280;52661;51.364;6.054;2023-07-29T00:45:34;100365.16;;;19.09;100.00
65880;BME280;52661;51.364;6.054;2023-07-29T00:48:01;100353.56;;;19.14;100.00
65880;BME280;52661;51.364;6.054;2023-07-29T00:50:26;100361.81;;;19.14;100.00
65880;BME280;52661;51.364;6.054;2023-07-29T00:52:54;100361.50;;;19.12;100.00
65880;BME280;52661;51.364;6.054;2023-07-29T00:55:20;100367.31;;;19.14;100.00
65880;BME280;52661;51.364;6.054;2023-07-29T00:57:46;100371.16;;;19.17;100.00
65880;BME280;52661;51.364;6.054;2023-07-29T01:00:14;100362.28;;;19.13;100.00
65880;BME280;52661;51.364;6.054;2023-07-29T01:02:40;100370.06;;;19.14;100.00
65880;BME280;52661;51.364;6.054;2023-07-29T01:05:06;100372.50;;;19.12;100.00
65880;BME280;52661;51.364;6.054;2023-07-29T01:10:03;100378.44;;;19.02;100.00
65880;BME280;52661;51.364;6.054;2023-07-29T01:12:54;100376.75;;;19.04;100.00
65880;BME280;52661;51.364;6.054;2023-07-29T01:15:38;100367.28;;;19.05;100.00
65880;BME280;52661;51.364;6.054;2023-07-29T01:18:09;100361.94;;;19.02;100.00
65880;BME280;52661;51.364;6.054;2023-07-29T01:20:38;100357.94;;;19.03;100.00
65880;BME280;52661;51.364;6.054;2023-07-29T01:23:05;100362.38;;;19.00;100.00
65880;BME280;52661;51.364;6.054;2023-07-29T01:25:30;100362.38;;;19.00;100.00
65880;BME280;52661;51.364;6.054;2023-07-29T01:27:56;100370.63;;;19.00;100.00
65880;BME280;52661;51.364;6.054;2023-07-29T01:30:26;100360.41;;;19.01;100.00
65880;BME280;52661;51.364;6.054;2023-07-29T01:33:25;100352.16;;;19.01;100.00
65880;BME280;52661;51.364;6.054;2023-07-29T01:35:56;100354.75;;;19.04;100.00
65880;BME280;52661;51.364;6.054;2023-07-29T01:38:38;100351.38;;;19.00;100.00
65880;BME280;52661;51.364;6.054;2023-07-29T01:41:08;100355.97;;;19.03;100.00
65880;BME280;52661;51.364;6.054;2023-07-29T01:43:34;100352.78;;;19.05;100.00
65880;BME280;52661;51.364;6.054;2023-07-29T01:46:04;100348.81;;;19.06;100.00
65880;BME280;52661;51.364;6.054;2023-07-29T01:48:29;100352.00;;;19.04;100.00
65880;BME280;52661;51.364;6.054;2023-07-29T01:50:57;100344.81;;;19.07;100.00
65880;BME280;52661;51.364;6.054;2023-07-29T01:53:22;100342.22;;;19.03;100.00
65880;BME280;52661;51.364;6.054;2023-07-29T01:55:47;100345.16;;;19.09;100.00
65880;BME280;52661;51.364;6.054;2023-07-29T01:58:13;100351.84;;;19.08;100.00
65880;BME280;52661;51.364;6.054;2023-07-29T02:00:39;100347.56;;;19.07;100.00
65880;BME280;52661;51.364;6.054;2023-07-29T02:03:05;100353.41;;;19.09;100.00
65880;BME280;52661;51.364;6.054;2023-07-29T02:05:30;100353.41;;;19.09;100.00
65880;BME280;52661;51.364;6.054;2023-07-29T02:07:55;100349.72;;;19.12;100.00
65880;BME280;52661;51.364;6.054;2023-07-29T02:10:21;100358.13;;;19.08;100.00
65880;BME280;52661;51.364;6.054;2023-07-29T02:12:46;100360.88;;;19.08;100.00
65880;BME280;52661;51.364;6.054;2023-07-29T02:15:12;100360.88;;;19.08;100.00
65880;BME280;52661;51.364;6.054;2023-07-29T02:17:37;100352.31;;;19.06;100.00
65880;BME280;52661;51.364;6.054;2023-07-29T02:20:03;100357.81;;;19.06;100.00
65880;BME280;52661;51.364;6.054;2023-07-29T02:22:29;100357.34;;;19.08;100.00
65880;BME280;52661;51.364;6.054;2023-07-29T02:24:55;100359.03;;;19.05;100.00
65880;BME280;52661;51.364;6.054;2023-07-29T02:27:20;100358.56;;;19.07;100.00
65880;BME280;52661;51.364;6.054;2023-07-29T02:29:45;100364.84;;;19.07;100.00
65880;BME280;52661;51.364;6.054;2023-07-29T02:32:11;100365.75;;;19.04;100.00
65880;BME280;52661;51.364;6.054;2023-07-29T02:34:36;100356.59;;;19.07;100.00
65880;BME280;52661;51.364;6.054;2023-07-29T02:37:02;100359.19;;;19.02;100.00
65880;BME280;52661;51.364;6.054;2023-07-29T02:39:27;100357.22;;;19.02;100.00
65880;BME280;52661;51.364;6.054;2023-07-29T02:41:52;100359.00;;;18.96;100.00
65880;BME280;52661;51.364;6.054;2023-07-29T02:44:18;100354.88;;;18.92;100.00
65880;BME280;52661;51.364;6.054;2023-07-29T02:46:45;100346.44;;;18.86;100.00
65880;BME280;52661;51.364;6.054;2023-07-29T02:49:10;100345.69;;;18.86;100.00
65880;BME280;52661;51.364;6.054;2023-07-29T02:51:35;100348.28;;;18.89;100.00
65880;BME280;52661;51.364;6.054;2023-07-29T02:54:01;100342.16;;;18.76;100.00
65880;BME280;52661;51.364;6.054;2023-07-29T02:56:26;100354.34;;;18.75;100.00
65880;BME280;52661;51.364;6.054;2023-07-29T02:58:52;100352.06;;;18.74;100.00
65880;BME280;52661;51.364;6.054;2023-07-29T03:01:17;100345.47;;;18.71;100.00
65880;BME280;52661;51.364;6.054;2023-07-29T03:03:42;100348.38;;;18.67;100.00
65880;BME280;52661;51.364;6.054;2023-07-29T03:06:10;100349.47;;;18.70;100.00
65880;BME280;52661;51.364;6.054;2023-07-29T03:08:36;100349.41;;;18.61;100.00
65880;BME280;52661;51.364;6.054;2023-07-29T03:11:10;100344.81;;;18.58;100.00
65880;BME280;52661;51.364;6.054;2023-07-29T03:13:36;100348.78;;;18.57;100.00
65880;BME280;52661;51.364;6.054;2023-07-29T03:16:19;100345.59;;;18.58;100.00
65880;BME280;52661;51.364;6.054;2023-07-29T03:18:45;100337.16;;;18.53;100.00
65880;BME280;52661;51.364;6.054;2023-07-29T03:21:11;100358.47;;;18.49;100.00
65880;BME280;52661;51.364;6.054;2023-07-29T03:23:37;100353.75;;;18.49;100.00
65880;BME280;52661;51.364;6.054;2023-07-29T03:26:03;100352.97;;;18.49;100.00
65880;BME280;52661;51.364;6.054;2023-07-29T03:28:36;100345.19;;;18.47;100.00
65880;BME280;52661;51.364;6.054;2023-07-29T03:31:02;100348.22;;;18.40;100.00
65880;BME280;52661;51.364;6.054;2023-07-29T03:33:28;100338.31;;;18.43;100.00
65880;BME280;52661;51.364;6.054;2023-07-29T03:35:53;100333.75;;;18.49;100.00
65880;BME280;52661;51.364;6.054;2023-07-29T03:38:19;100344.56;;;18.43;100.00
65880;BME280;52661;51.364;6.054;2023-07-29T03:40:44;100342.25;;;18.42;100.00
65880;BME280;52661;51.364;6.054;2023-07-29T03:43:10;100338.56;;;18.36;100.00
65880;BME280;52661;51.364;6.054;2023-07-29T03:45:36;100344.06;;;18.36;100.00
65880;BME280;52661;51.364;6.054;2023-07-29T03:48:02;100339.63;;;18.29;100.00
65880;BME280;52661;51.364;6.054;2023-07-29T03:50:29;100342.81;;;18.28;100.00
65880;BME280;52661;51.364;6.054;2023-07-29T03:52:55;100355.03;;;18.27;100.00
65880;BME280;52661;51.364;6.054;2023-07-29T03:55:20;100357.44;;;18.25;100.00
65880;BME280;52661;51.364;6.054;2023-07-29T03:57:46;100354.78;;;18.12;100.00
65880;BME280;52661;51.364;6.054;2023-07-29T04:00:11;100360.16;;;18.15;100.00
65880;BME280;52661;51.364;6.054;2023-07-29T04:02:37;100365.31;;;18.13;100.00
65880;BME280;52661;51.364;6.054;2023-07-29T04:05:05;100356.28;;;18.13;100.00
65880;BME280;52661;51.364;6.054;2023-07-29T04:07:37;100366.06;;;18.14;100.00
65880;BME280;52661;51.364;6.054;2023-07-29T04:10:03;100368.81;;;18.14;100.00
65880;BME280;52661;51.364;6.054;2023-07-29T04:12:28;100368.81;;;18.14;100.00
65880;BME280;52661;51.364;6.054;2023-07-29T04:14:54;100370.38;;;18.15;100.00
65880;BME280;52661;51.364;6.054;2023-07-29T04:17:19;100373.69;;;18.10;100.00
65880;BME280;52661;51.364;6.054;2023-07-29T04:19:44;100360.28;;;18.12;100.00
65880;BME280;52661;51.364;6.054;2023-07-29T04:22:10;100353.56;;;18.13;100.00
65880;BME280;52661;51.364;6.054;2023-07-29T04:24:35;100342.13;;;18.14;100.00
65880;BME280;52661;51.364;6.054;2023-07-29T04:27:01;100334.78;;;18.11;100.00
65880;BME280;52661;51.364;6.054;2023-07-29T04:29:26;100334.00;;;18.11;100.00
65880;BME280;52661;51.364;6.054;2023-07-29T04:31:52;100328.66;;;18.07;100.00
65880;BME280;52661;51.364;6.054;2023-07-29T04:34:18;100333.56;;;18.12;100.00
65880;BME280;52661;51.364;6.054;2023-07-29T04:36:44;100345.31;;;18.13;100.00
65880;BME280;52661;51.364;6.054;2023-07-29T04:39:10;100350.03;;;18.12;100.00
65880;BME280;52661;51.364;6.054;2023-07-29T04:41:35;100341.19;;;18.08;100.00
65880;BME280;52661;51.364;6.054;2023-07-29T04:44:00;100345.00;;;18.11;100.00
65880;BME280;52661;51.364;6.054;2023-07-29T04:46:26;100354.44;;;18.10;100.00
65880;BME280;52661;51.364;6.054;2023-07-29T04:48:51;100361.75;;;18.04;100.00
65880;BME280;52661;51.364;6.054;2023-07-29T04:51:16;100377.16;;;18.01;100.00
65880;BME280;52661;51.364;6.054;2023-07-29T04:53:42;100378.34;;;18.00;100.00
65880;BME280;52661;51.364;6.054;2023-07-29T04:56:07;100398.72;;;17.90;100.00
65880;BME280;52661;51.364;6.054;2023-07-29T04:58:32;100385.94;;;17.96;100.00
65880;BME280;52661;51.364;6.054;2023-07-29T05:01:01;100388.69;;;17.96;100.00
65880;BME280;52661;51.364;6.054;2023-07-29T05:03:26;100397.22;;;17.98;100.00
65880;BME280;52661;51.364;6.054;2023-07-29T05:05:51;100390.41;;;18.03;100.00
65880;BME280;52661;51.364;6.054;2023-07-29T05:08:18;100395.91;;;18.03;100.00
65880;BME280;52661;51.364;6.054;2023-07-29T05:10:44;100381.88;;;18.01;100.00
65880;BME280;52661;51.364;6.054;2023-07-29T05:13:10;100382.25;;;17.90;100.00
65880;BME280;52661;51.364;6.054;2023-07-29T05:15:35;100397.63;;;17.88;100.00
65880;BME280;52661;51.364;6.054;2023-07-29T05:18:00;100404.22;;;17.90;100.00
65880;BME280;52661;51.364;6.054;2023-07-29T05:20:26;100406.97;;;17.90;100.00
65880;BME280;52661;51.364;6.054;2023-07-29T05:22:51;100411.09;;;17.95;100.00
65880;BME280;52661;51.364;6.054;2023-07-29T05:25:16;100404.34;;;17.87;100.00
65880;BME280;52661;51.364;6.054;2023-07-29T05:27:42;100407.22;;;17.83;100.00
65880;BME280;52661;51.364;6.054;2023-07-29T05:30:07;100415.19;;;17.90;100.00
65880;BME280;52661;51.364;6.054;2023-07-29T05:32:33;100417.59;;;17.88;100.00
65880;BME280;52661;51.364;6.054;2023-07-29T05:34:58;100412.56;;;17.87;100.00
65880;BME280;52661;51.364;6.054;2023-07-29T05:37:24;100414.09;;;17.88;100.00
65880;BME280;52661;51.364;6.054;2023-07-29T05:39:49;100412.81;;;17.80;100.00
65880;BME280;52661;51.364;6.054;2023-07-29T05:42:14;100415.34;;;17.74;100.00
65880;BME280;52661;51.364;6.054;2023-07-29T05:44:40;100427.28;;;17.80;100.00
65880;BME280;52661;51.364;6.054;2023-07-29T05:47:05;100415.09;;;17.81;100.00
65880;BME280;52661;51.364;6.054;2023-07-29T05:49:31;100423.22;;;17.85;100.00
65880;BME280;52661;51.364;6.054;2023-07-29T05:51:56;100423.44;;;17.90;100.00
65880;BME280;52661;51.364;6.054;2023-07-29T05:54:22;100422.13;;;17.82;100.00
65880;BME280;52661;51.364;6.054;2023-07-29T05:56:47;100425.56;;;17.74;100.00
65880;BME280;52661;51.364;6.054;2023-07-29T05:59:12;100428.53;;;17.79;100.00
65880;BME280;52661;51.364;6.054;2023-07-29T06:01:38;100424.53;;;17.80;100.00
65880;BME280;52661;51.364;6.054;2023-07-29T06:04:03;100422.13;;;17.82;100.00
65880;BME280;52661;51.364;6.054;2023-07-29T06:06:29;100413.00;;;17.85;100.00
65880;BME280;52661;51.364;6.054;2023-07-29T06:08:54;100414.97;;;17.85;100.00
65880;BME280;52661;51.364;6.054;2023-07-29T06:11:21;100415.88;;;17.82;100.00
65880;BME280;52661;51.364;6.054;2023-07-29T06:13:47;100411.47;;;17.84;100.00
65880;BME280;52661;51.364;6.054;2023-07-29T06:16:13;100418.19;;;17.83;100.00
65880;BME280;52661;51.364;6.054;2023-07-29T06:18:38;100421.56;;;17.87;100.00
65880;BME280;52661;51.364;6.054;2023-07-29T06:21:03;100418.13;;;17.96;100.00
65880;BME280;52661;51.364;6.054;2023-07-29T06:23:32;100419.06;;;18.02;100.00
65880;BME280;52661;51.364;6.054;2023-07-29T06:25:58;100424.44;;;18.05;100.00
65880;BME280;52661;51.364;6.054;2023-07-29T06:28:25;100433.34;;;18.09;100.00
65880;BME280;52661;51.364;6.054;2023-07-29T06:30:51;100435.00;;;18.07;100.00
65880;BME280;52661;51.364;6.054;2023-07-29T06:33:16;100436.19;;;18.06;100.00
65880;BME280;52661;51.364;6.054;2023-07-29T06:35:42;100438.19;;;18.05;100.00
65880;BME280;52661;51.364;6.054;2023-07-29T06:38:07;100431.34;;;18.10;100.00
65880;BME280;52661;51.364;6.054;2023-07-29T06:40:32;100438.06;;;18.09;100.00
65880;BME280;52661;51.364;6.054;2023-07-29T06:42:58;100432.31;;;18.16;100.00
65880;BME280;52661;51.364;6.054;2023-07-29T06:45:23;100428.81;;;18.15;100.00
65880;BME280;52661;51.364;6.054;2023-07-29T06:47:48;100426.47;;;18.27;100.00
65880;BME280;52661;51.364;6.054;2023-07-29T06:50:14;100433.41;;;18.40;100.00
65880;BME280;52661;51.364;6.054;2023-07-29T06:52:39;100432.91;;;18.33;100.00
65880;BME280;52661;51.364;6.054;2023-07-29T06:55:05;100432.25;;;18.29;100.00
65880;BME280;52661;51.364;6.054;2023-07-29T06:57:31;100432.19;;;18.19;100.00
65880;BME280;52661;51.364;6.054;2023-07-29T06:59:57;100438.81;;;18.31;100.00
65880;BME280;52661;51.364;6.054;2023-07-29T07:02:22;100429.19;;;18.48;100.00
65880;BME280;52661;51.364;6.054;2023-07-29T07:04:48;100435.06;;;18.59;100.00
65880;BME280;52661;51.364;6.054;2023-07-29T07:07:13;100440.50;;;18.72;100.00
65880;BME280;52661;51.364;6.054;2023-07-29T07:09:38;100441.53;;;18.65;100.00
65880;BME280;52661;51.364;6.054;2023-07-29T07:12:04;100432.81;;;18.67;100.00
65880;BME280;52661;51.364;6.054;2023-07-29T07:14:29;100432.53;;;18.74;100.00
65880;BME280;52661;51.364;6.054;2023-07-29T07:16:55;100439.66;;;18.84;100.00
65880;BME280;52661;51.364;6.054;2023-07-29T07:19:20;100443.19;;;18.94;100.00
65880;BME280;52661;51.364;6.054;2023-07-29T07:21:45;100439.13;;;19.07;100.00
65880;BME280;52661;51.364;6.054;2023-07-29T07:24:11;100437.91;;;19.17;100.00
65880;BME280;52661;51.364;6.054;2023-07-29T07:26:36;100434.88;;;19.15;100.00
65880;BME280;52661;51.364;6.054;2023-07-29T07:29:02;100428.94;;;19.17;100.00
65880;BME280;52661;51.364;6.054;2023-07-29T07:31:27;100446.06;;;19.30;100.00
65880;BME280;52661;51.364;6.054;2023-07-29T07:33:52;100429.66;;;19.17;100.00
65880;BME280;52661;51.364;6.054;2023-07-29T07:36:18;100430.75;;;19.20;100.00
65880;BME280;52661;51.364;6.054;2023-07-29T07:38:43;100437.97;;;19.36;100.00
65880;BME280;52661;51.364;6.054;2023-07-29T07:41:08;100430.56;;;19.45;100.00
65880;BME280;52661;51.364;6.054;2023-07-29T07:43:34;100439.44;;;19.49;100.00
65880;BME280;52661;51.364;6.054;2023-07-29T07:46:01;100451.53;;;19.70;100.00
65880;BME280;52661;51.364;6.054;2023-07-29T07:48:27;100449.53;;;19.61;100.00
65880;BME280;52661;51.364;6.054;2023-07-29T07:50:53;100449.84;;;19.73;100.00
65880;BME280;52661;51.364;6.054;2023-07-29T07:53:18;100441.13;;;19.65;100.00
65880;BME280;52661;51.364;6.054;2023-07-29T07:55:45;100449.72;;;19.76;100.00
65880;BME280;52661;51.364;6.054;2023-07-29T07:58:10;100448.94;;;19.67;100.00
65880;BME280;52661;51.364;6.054;2023-07-29T08:00:35;100446.50;;;19.78;100.00
65880;BME280;52661;51.364;6.054;2023-07-29T08:03:01;100452.00;;;19.87;100.00
65880;BME280;52661;51.364;6.054;2023-07-29T08:05:26;100447.72;;;19.77;100.00
65880;BME280;52661;51.364;6.054;2023-07-29T08:07:51;100453.09;;;19.89;100.00
65880;BME280;52661;51.364;6.054;2023-07-29T08:10:17;100448.66;;;19.92;100.00
65880;BME280;52661;51.364;6.054;2023-07-29T08:12:42;100444.53;;;19.96;100.00
65880;BME280;52661;51.364;6.054;2023-07-29T08:15:08;100438.88;;;20.00;100.00
65880;BME280;52661;51.364;6.054;2023-07-29T08:17:33;100453.25;;;20.04;100.00
65880;BME280;52661;51.364;6.054;2023-07-29T08:19:58;100441.94;;;19.93;100.00
65880;BME280;52661;51.364;6.054;2023-07-29T08:22:24;100446.97;;;19.94;100.00
65880;BME280;52661;51.364;6.054;2023-07-29T08:24:49;100439.19;;;19.93;100.00
65880;BME280;52661;51.364;6.054;2023-07-29T08:27:14;100445.28;;;20.06;100.00
65880;BME280;52661;51.364;6.054;2023-07-29T08:29:40;100450.19;;;20.20;100.00
65880;BME280;52661;51.364;6.054;2023-07-29T08:32:05;100452.81;;;20.33;100.00
65880;BME280;52661;51.364;6.054;2023-07-29T08:34:31;100457.53;;;20.41;100.00
65880;BME280;52661;51.364;6.054;2023-07-29T08:36:56;100467.94;;;20.37;100.00
65880;BME280;52661;51.364;6.054;2023-07-29T08:39:22;100458.75;;;20.40;100.00
65880;BME280;52661;51.364;6.054;2023-07-29T08:42:04;100462.59;;;20.43;100.00
65880;BME280;52661;51.364;6.054;2023-07-29T08:44:36;100467.19;;;20.37;100.00
65880;BME280;52661;51.364;6.054;2023-07-29T08:47:05;100472.41;;;20.26;100.00
65880;BME280;52661;51.364;6.054;2023-07-29T08:49:31;100469.19;;;20.18;100.00
65880;BME280;52661;51.364;6.054;2023-07-29T08:51:57;100469.34;;;20.14;100.00
65880;BME280;52661;51.364;6.054;2023-07-29T08:54:23;100474.84;;;20.14;100.00
65880;BME280;52661;51.364;6.054;2023-07-29T08:56:48;100482.34;;;20.14;100.00
65880;BME280;52661;51.364;6.054;2023-07-29T08:59:14;100472.69;;;20.19;100.00
65880;BME280;52661;51.364;6.054;2023-07-29T09:01:41;100475.28;;;20.22;100.00
65880;BME280;52661;51.364;6.054;2023-07-29T09:04:07;100481.25;;;20.21;100.00
65880;BME280;52661;51.364;6.054;2023-07-29T09:06:32;100477.28;;;20.12;100.00
65880;BME280;52661;51.364;6.054;2023-07-29T09:08:59;100481.41;;;20.08;100.00
65880;BME280;52661;51.364;6.054;2023-07-29T09:11:25;100472.84;;;20.06;100.00
65880;BME280;52661;51.364;6.054;2023-07-29T09:13:51;100479.13;;;20.06;100.00
65880;BME280;52661;51.364;6.054;2023-07-29T09:16:19;100464.72;;;20.21;100.00
65880;BME280;52661;51.364;6.054;2023-07-29T09:18:48;100470.25;;;20.39;100.00
65880;BME280;52661;51.364;6.054;2023-07-29T09:21:17;100463.03;;;20.59;100.00
65880;BME280;52661;51.364;6.054;2023-07-29T09:23:43;100455.75;;;20.80;100.00
65880;BME280;52661;51.364;6.054;2023-07-29T09:26:09;100465.41;;;20.85;100.00
65880;BME280;52661;51.364;6.054;2023-07-29T09:28:38;100463.22;;;20.98;100.00
65880;BME280;52661;51.364;6.054;2023-07-29T09:31:05;100459.72;;;20.88;100.00
65880;BME280;52661;51.364;6.054;2023-07-29T09:33:34;100454.69;;;20.87;100.00
65880;BME280;52661;51.364;6.054;2023-07-29T09:36:03;100452.66;;;20.87;100.00
65880;BME280;52661;51.364;6.054;2023-07-29T09:38:28;100452.34;;;20.94;100.00
65880;BME280;52661;51.364;6.054;2023-07-29T09:40:57;100457.53;;;21.01;100.00
65880;BME280;52661;51.364;6.054;2023-07-29T09:43:33;100465.28;;;21.21;100.00
65880;BME280;52661;51.364;6.054;2023-07-29T09:46:03;100457.53;;;21.34;100.00
65880;BME280;52661;51.364;6.054;2023-07-29T09:48:32;100461.25;;;21.31;100.00
65880;BME280;52661;51.364;6.054;2023-07-29T09:50:58;100461.59;;;21.24;100.00
65880;BME280;52661;51.364;6.054;2023-07-29T09:53:24;100457.00;;;21.21;100.00
65880;BME280;52661;51.364;6.054;2023-07-29T09:55:50;100453.78;;;21.23;100.00
65880;BME280;52661;51.364;6.054;2023-07-29T09:58:19;100449.53;;;21.13;100.00
65880;BME280;52661;51.364;6.054;2023-07-29T10:00:45;100446.47;;;21.10;100.00
65880;BME280;52661;51.364;6.054;2023-07-29T10:03:12;100454.09;;;21.25;100.00
65880;BME280;52661;51.364;6.054;2023-07-29T10:05:39;100452.69;;;21.29;100.00
65880;BME280;52661;51.364;6.054;2023-07-29T10:08:06;100451.31;;;21.25;100.00
65880;BME280;52661;51.364;6.054;2023-07-29T10:10:32;100456.84;;;21.25;100.00
65880;BME280;52661;51.364;6.054;2023-07-29T10:12:58;100460.03;;;21.32;100.00
65880;BME280;52661;51.364;6.054;2023-07-29T10:15:24;100462.34;;;21.25;100.00
65880;BME280;52661;51.364;6.054;2023-07-29T10:17:51;100461.91;;;21.26;100.00
65880;BME280;52661;51.364;6.054;2023-07-29T10:20:17;100465.34;;;21.45;100.00
65880;BME280;52661;51.364;6.054;2023-07-29T10:22:44;100451.53;;;21.45;100.00
65880;BME280;52661;51.364;6.054;2023-07-29T10:25:19;100460.63;;;21.60;100.00
65880;BME280;52661;51.364;6.054;2023-07-29T10:28:05;100459.66;;;21.48;100.00
65880;BME280;52661;51.364;6.054;2023-07-29T10:30:31;100459.56;;;21.34;100.00
65880;BME280;52661;51.364;6.054;2023-07-29T10:32:58;100460.09;;;21.23;100.00
65880;BME280;52661;51.364;6.054;2023-07-29T10:35:26;100461.75;;;21.21;100.00
65880;BME280;52661;51.364;6.054;2023-07-29T10:37:52;100457.59;;;21.25;100.00
65880;BME280;52661;51.364;6.054;2023-07-29T10:40:19;100462.97;;;21.29;100.00
65880;BME280;52661;51.364;6.054;2023-07-29T10:43:01;100468.66;;;21.25;100.00
65880;BME280;52661;51.364;6.054;2023-07-29T10:45:40;100458.88;;;21.15;100.00
65880;BME280;52661;51.364;6.054;2023-07-29T10:48:13;100459.81;;;21.12;100.00
65880;BME280;52661;51.364;6.054;2023-07-29T10:53:56;100454.00;;;21.01;100.00
65880;BME280;52661;51.364;6.054;2023-07-29T10:56:27;100450.44;;;21.09;100.00
65880;BME280;52661;51.364;6.054;2023-07-29T10:58:55;100447.97;;;21.21;100.00
65880;BME280;52661;51.364;6.054;2023-07-29T11:01:26;100442.41;;;21.30;100.00
65880;BME280;52661;51.364;6.054;2023-07-29T11:04:24;100442.22;;;21.57;100.00
65880;BME280;52661;51.364;6.054;2023-07-29T11:12:36;100444.72;;;21.55;100.00
65880;BME280;52661;51.364;6.054;2023-07-29T11:17:32;100435.69;;;21.45;100.00
65880;BME280;52661;51.364;6.054;2023-07-29T11:20:00;100434.53;;;21.37;100.00
65880;BME280;52661;51.364;6.054;2023-07-29T11:22:25;100439.00;;;21.35;100.00
65880;BME280;52661;51.364;6.054;2023-07-29T11:24:51;100439.91;;;21.41;100.00
65880;BME280;52661;51.364;6.054;2023-07-29T11:27:16;100437.13;;;21.41;100.00
65880;BME280;52661;51.364;6.054;2023-07-29T11:29:42;100434.81;;;21.39;100.00
65880;BME280;52661;51.364;6.054;2023-07-29T11:32:07;100433.72;;;21.46;100.00
65880;BME280;52661;51.364;6.054;2023-07-29T11:34:34;100431.44;;;21.44;100.00
65880;BME280;52661;51.364;6.054;2023-07-29T11:36:59;100432.13;;;21.54;100.00
65880;BME280;52661;51.364;6.054;2023-07-29T11:39:25;100435.91;;;21.66;100.00
65880;BME280;52661;51.364;6.054;2023-07-29T11:41:50;100438.53;;;21.60;100.00
65880;BME280;52661;51.364;6.054;2023-07-29T11:44:18;100431.97;;;21.57;100.00
65880;BME280;52661;51.364;6.054;2023-07-29T11:46:44;100437.94;;;21.56;100.00
65880;BME280;52661;51.364;6.054;2023-07-29T11:49:10;100434.91;;;21.54;100.00
65880;BME280;52661;51.364;6.054;2023-07-29T11:51:36;100423.44;;;21.94;100.00
65880;BME280;52661;51.364;6.054;2023-07-29T11:54:02;100427.22;;;21.96;100.00
65880;BME280;52661;51.364;6.054;2023-07-29T11:56:29;100428.78;;;21.97;100.00
65880;BME280;52661;51.364;6.054;2023-07-29T11:58:55;100429.41;;;21.92;100.00
65880;BME280;52661;51.364;6.054;2023-07-29T12:01:20;100433.06;;;21.98;100.00
65880;BME280;52661;51.364;6.054;2023-07-29T12:03:48;100426.31;;;22.29;100.00
65880;BME280;52661;51.364;6.054;2023-07-29T12:06:14;100418.16;;;22.64;100.00
65880;BME280;52661;51.364;6.054;2023-07-29T12:08:41;100416.03;;;22.58;100.00
65880;BME280;52661;51.364;6.054;2023-07-29T12:11:07;100415.06;;;22.32;100.00
65880;BME280;52661;51.364;6.054;2023-07-29T12:13:33;100420.91;;;22.20;100.00
65880;BME280;52661;51.364;6.054;2023-07-29T12:16:02;100417.28;;;22.14;100.00
65880;BME280;52661;51.364;6.054;2023-07-29T12:18:32;100420.59;;;22.18;100.00
65880;BME280;52661;51.364;6.054;2023-07-29T12:20:58;100425.84;;;22.16;100.00
65880;BME280;52661;51.364;6.054;2023-07-29T12:23:26;100412.50;;;22.14;100.00
65880;BME280;52661;51.364;6.054;2023-07-29T12:25:57;100409.84;;;22.20;100.00
65880;BME280;52661;51.364;6.054;2023-07-29T12:28:22;100410.69;;;22.26;100.00
65880;BME280;52661;51.364;6.054;2023-07-29T12:30:52;100397.63;;;22.41;100.00
65880;BME280;52661;51.364;6.054;2023-07-29T12:33:36;100411.75;;;22.57;100.00
65880;BME280;52661;51.364;6.054;2023-07-29T12:36:07;100409.34;;;22.50;100.00
65880;BME280;52661;51.364;6.054;2023-07-29T12:38:32;100402.31;;;22.35;100.00
65880;BME280;52661;51.364;6.054;2023-07-29T12:40:57;100403.81;;;22.21;100.00
65880;BME280;52661;51.364;6.054;2023-07-29T12:43:24;100396.38;;;21.98;100.00
65880;BME280;52661;51.364;6.054;2023-07-29T12:45:50;100409.25;;;21.77;100.00
65880;BME280;52661;51.364;6.054;2023-07-29T12:48:15;100410.47;;;21.38;100.00
65880;BME280;52661;51.364;6.054;2023-07-29T12:50:40;100421.78;;;21.16;100.00
65880;BME280;52661;51.364;6.054;2023-07-29T12:53:07;100432.94;;;20.80;100.00